sensor_id;sensor_type;location;lat;lon;timestamp;temperature;humidity
15834;DHT22;8017;50.812;4.934;2023-03-01T00:01:52;-0.60;99.90
15834;DHT22;8017;50.812;4.934;2023-03-01T00:04:54;-0.70;99.90
15834;DHT22;8017;50.812;4.934;2023-03-01T00:07:56;-0.70;99.90
15834;DHT22;8017;50.812;4.934;2023-03-01T00:11:03;-0.80;99.90
15834;DHT22;8017;50.812;4.934;2023-03-01T00:14:06;-0.60;99.90
15834;DHT22;8017;50.812;4.934;2023-03-01T00:17:08;-0.70;99.90
15834;DHT22;8017;50.812;4.934;2023-03-01T00:20:11;-0.90;99.90
15834;DHT22;8017;50.812;4.934;2023-03-01T00:23:13;-0.80;99.90
15834;DHT22;8017;50.812;4.934;2023-03-01T00:26:16;-0.80;99.90
15834;DHT22;8017;50.812;4.934;2023-03-01T00:29:20;-0.90;99.90
15834;DHT22;8017;50.812;4.934;2023-03-01T00:32:22;-1.10;99.90
15834;DHT22;8017;50.812;4.934;2023-03-01T00:35:24;-1.10;99.90
15834;DHT22;8017;50.812;4.934;2023-03-01T00:38:26;-1.30;99.90
15834;DHT22;8017;50.812;4.934;2023-03-01T00:41:28;-1.20;99.90
15834;DHT22;8017;50.812;4.934;2023-03-01T00:44:31;-1.00;99.90
15834;DHT22;8017;50.812;4.934;2023-03-01T00:47:34;-0.90;99.90
15834;DHT22;8017;50.812;4.934;2023-03-01T00:50:36;-1.00;99.90
15834;DHT22;8017;50.812;4.934;2023-03-01T00:53:38;-0.90;99.90
15834;DHT22;8017;50.812;4.934;2023-03-01T00:56:40;-1.00;99.90
15834;DHT22;8017;50.812;4.934;2023-03-01T00:59:44;-1.00;99.90
15834;DHT22;8017;50.812;4.934;2023-03-01T01:02:46;-1.20;99.90
15834;DHT22;8017;50.812;4.934;2023-03-01T01:05:48;-1.10;99.90
15834;DHT22;8017;50.812;4.934;2023-03-01T01:08:51;-1.00;99.90
15834;DHT22;8017;50.812;4.934;2023-03-01T01:11:53;-1.00;99.90
15834;DHT22;8017;50.812;4.934;2023-03-01T01:14:56;-1.10;99.90
15834;DHT22;8017;50.812;4.934;2023-03-01T01:17:58;-1.20;99.90
15834;DHT22;8017;50.812;4.934;2023-03-01T01:21:04;-1.20;99.90
15834;DHT22;8017;50.812;4.934;2023-03-01T01:24:07;-1.00;99.90
15834;DHT22;8017;50.812;4.934;2023-03-01T01:27:08;-1.20;99.90
15834;DHT22;8017;50.812;4.934;2023-03-01T01:30:13;-1.40;99.90
15834;DHT22;8017;50.812;4.934;2023-03-01T01:33:15;-1.20;99.90
15834;DHT22;8017;50.812;4.934;2023-03-01T01:36:17;-1.10;99.90
15834;DHT22;8017;50.812;4.934;2023-03-01T01:39:19;-1.00;99.90
15834;DHT22;8017;50.812;4.934;2023-03-01T01:42:21;-0.90;99.90
15834;DHT22;8017;50.812;4.934;2023-03-01T01:45:31;-1.00;99.90
15834;DHT22;8017;50.812;4.934;2023-03-01T01:48:38;-1.00;99.90
15834;DHT22;8017;50.812;4.934;2023-03-01T01:51:45;-0.90;99.90
15834;DHT22;8017;50.812;4.934;2023-03-01T01:54:50;-0.90;99.90
15834;DHT22;8017;50.812;4.934;2023-03-01T01:57:55;-1.10;99.90
15834;DHT22;8017;50.812;4.934;2023-03-01T02:00:59;-1.10;99.90
15834;DHT22;8017;50.812;4.934;2023-03-01T02:04:01;-1.20;99.90
15834;DHT22;8017;50.812;4.934;2023-03-01T02:07:09;-1.20;99.90
15834;DHT22;8017;50.812;4.934;2023-03-01T02:10:12;-1.20;99.90
15834;DHT22;8017;50.812;4.934;2023-03-01T02:13:15;-1.10;99.90
15834;DHT22;8017;50.812;4.934;2023-03-01T02:16:19;-1.10;99.90
15834;DHT22;8017;50.812;4.934;2023-03-01T02:19:31;-1.00;99.90
15834;DHT22;8017;50.812;4.934;2023-03-01T02:22:37;-1.00;99.90
15834;DHT22;8017;50.812;4.934;2023-03-01T02:25:45;-1.10;99.90
15834;DHT22;8017;50.812;4.934;2023-03-01T02:28:50;-1.00;99.90
15834;DHT22;8017;50.812;4.934;2023-03-01T02:31:55;-1.10;99.90
15834;DHT22;8017;50.812;4.934;2023-03-01T02:34:59;-1.20;99.90
15834;DHT22;8017;50.812;4.934;2023-03-01T02:38:01;-1.20;99.90
15834;DHT22;8017;50.812;4.934;2023-03-01T02:41:04;-1.20;99.90
15834;DHT22;8017;50.812;4.934;2023-03-01T02:44:08;-1.20;99.90
15834;DHT22;8017;50.812;4.934;2023-03-01T02:47:10;-1.20;99.90
15834;DHT22;8017;50.812;4.934;2023-03-01T02:50:24;-1.30;99.90
15834;DHT22;8017;50.812;4.934;2023-03-01T02:53:34;-1.30;99.90
15834;DHT22;8017;50.812;4.934;2023-03-01T02:56:41;-1.30;99.90
15834;DHT22;8017;50.812;4.934;2023-03-01T02:59:45;-1.40;99.90
15834;DHT22;8017;50.812;4.934;2023-03-01T03:02:49;-1.40;99.90
15834;DHT22;8017;50.812;4.934;2023-03-01T03:05:51;-1.50;99.90
15834;DHT22;8017;50.812;4.934;2023-03-01T03:08:53;-1.40;99.90
15834;DHT22;8017;50.812;4.934;2023-03-01T03:11:55;-1.50;99.90
15834;DHT22;8017;50.812;4.934;2023-03-01T03:14:58;-1.50;99.90
15834;DHT22;8017;50.812;4.934;2023-03-01T03:18:00;-1.50;99.90
15834;DHT22;8017;50.812;4.934;2023-03-01T03:21:02;-1.60;99.90
15834;DHT22;8017;50.812;4.934;2023-03-01T03:24:04;-1.60;99.90
15834;DHT22;8017;50.812;4.934;2023-03-01T03:27:07;-1.60;99.90
15834;DHT22;8017;50.812;4.934;2023-03-01T03:30:14;-1.50;99.90
15834;DHT22;8017;50.812;4.934;2023-03-01T03:33:16;-1.60;99.90
15834;DHT22;8017;50.812;4.934;2023-03-01T03:36:20;-1.60;99.90
15834;DHT22;8017;50.812;4.934;2023-03-01T03:39:22;-1.60;99.90
15834;DHT22;8017;50.812;4.934;2023-03-01T03:42:24;-1.70;99.90
15834;DHT22;8017;50.812;4.934;2023-03-01T03:45:27;-1.60;99.90
15834;DHT22;8017;50.812;4.934;2023-03-01T03:48:29;-1.70;99.90
15834;DHT22;8017;50.812;4.934;2023-03-01T03:51:31;-1.80;99.90
15834;DHT22;8017;50.812;4.934;2023-03-01T03:54:33;-1.80;99.90
15834;DHT22;8017;50.812;4.934;2023-03-01T03:57:35;-1.80;99.90
15834;DHT22;8017;50.812;4.934;2023-03-01T04:00:40;-1.90;99.90
15834;DHT22;8017;50.812;4.934;2023-03-01T04:03:42;-1.90;99.90
15834;DHT22;8017;50.812;4.934;2023-03-01T04:06:47;-1.80;99.90
15834;DHT22;8017;50.812;4.934;2023-03-01T04:09:49;-1.90;99.90
15834;DHT22;8017;50.812;4.934;2023-03-01T04:12:51;-1.90;99.90
15834;DHT22;8017;50.812;4.934;2023-03-01T04:15:57;-2.00;99.90
15834;DHT22;8017;50.812;4.934;2023-03-01T04:18:59;-2.00;99.90
15834;DHT22;8017;50.812;4.934;2023-03-01T04:22:01;-2.00;99.90
15834;DHT22;8017;50.812;4.934;2023-03-01T04:25:08;-2.00;99.90
15834;DHT22;8017;50.812;4.934;2023-03-01T04:28:14;-2.20;99.90
15834;DHT22;8017;50.812;4.934;2023-03-01T04:31:19;-2.10;99.90
15834;DHT22;8017;50.812;4.934;2023-03-01T04:34:21;-2.00;99.90
15834;DHT22;8017;50.812;4.934;2023-03-01T04:37:23;-2.00;99.90
15834;DHT22;8017;50.812;4.934;2023-03-01T04:40:25;-2.00;99.90
15834;DHT22;8017;50.812;4.934;2023-03-01T04:43:27;-2.00;99.90
15834;DHT22;8017;50.812;4.934;2023-03-01T04:46:31;-2.00;99.90
15834;DHT22;8017;50.812;4.934;2023-03-01T04:49:33;-2.10;99.90
15834;DHT22;8017;50.812;4.934;2023-03-01T04:52:35;-2.10;99.90
15834;DHT22;8017;50.812;4.934;2023-03-01T04:55:37;-2.20;99.90
15834;DHT22;8017;50.812;4.934;2023-03-01T04:58:38;-2.30;99.90
15834;DHT22;8017;50.812;4.934;2023-03-01T05:01:42;-2.20;99.90
15834;DHT22;8017;50.812;4.934;2023-03-01T05:04:44;-2.30;99.90
15834;DHT22;8017;50.812;4.934;2023-03-01T05:07:46;-2.20;99.90
15834;DHT22;8017;50.812;4.934;2023-03-01T05:10:50;-2.30;99.90
15834;DHT22;8017;50.812;4.934;2023-03-01T05:13:52;-2.30;99.90
15834;DHT22;8017;50.812;4.934;2023-03-01T05:16:56;-2.40;99.90
15834;DHT22;8017;50.812;4.934;2023-03-01T05:20:05;-2.40;99.90
15834;DHT22;8017;50.812;4.934;2023-03-01T05:23:09;-2.50;99.90
15834;DHT22;8017;50.812;4.934;2023-03-01T05:26:11;-2.40;99.90
15834;DHT22;8017;50.812;4.934;2023-03-01T05:29:13;-2.40;99.90
15834;DHT22;8017;50.812;4.934;2023-03-01T05:32:17;-2.50;99.90
15834;DHT22;8017;50.812;4.934;2023-03-01T05:35:18;-2.40;99.90
15834;DHT22;8017;50.812;4.934;2023-03-01T05:38:21;-2.40;99.90
15834;DHT22;8017;50.812;4.934;2023-03-01T05:41:23;-2.40;99.90
15834;DHT22;8017;50.812;4.934;2023-03-01T05:44:25;-2.40;99.90
15834;DHT22;8017;50.812;4.934;2023-03-01T05:47:28;-2.40;99.90
15834;DHT22;8017;50.812;4.934;2023-03-01T05:50:34;-2.50;99.90
15834;DHT22;8017;50.812;4.934;2023-03-01T05:53:36;-2.60;99.90
15834;DHT22;8017;50.812;4.934;2023-03-01T05:56:38;-2.60;99.90
15834;DHT22;8017;50.812;4.934;2023-03-01T05:59:40;-2.60;99.90
15834;DHT22;8017;50.812;4.934;2023-03-01T06:02:43;-2.60;99.90
15834;DHT22;8017;50.812;4.934;2023-03-01T06:05:45;-2.60;99.90
15834;DHT22;8017;50.812;4.934;2023-03-01T06:08:47;-2.60;99.90
15834;DHT22;8017;50.812;4.934;2023-03-01T06:11:49;-2.60;99.90
15834;DHT22;8017;50.812;4.934;2023-03-01T06:14:51;-2.60;99.90
15834;DHT22;8017;50.812;4.934;2023-03-01T06:17:55;-2.60;99.90
15834;DHT22;8017;50.812;4.934;2023-03-01T06:20:58;-2.60;99.90
15834;DHT22;8017;50.812;4.934;2023-03-01T06:23:59;-2.70;99.90
15834;DHT22;8017;50.812;4.934;2023-03-01T06:27:02;-2.60;99.90
15834;DHT22;8017;50.812;4.934;2023-03-01T06:30:05;-2.60;99.90
15834;DHT22;8017;50.812;4.934;2023-03-01T06:33:08;-2.60;99.90
15834;DHT22;8017;50.812;4.934;2023-03-01T06:36:10;-2.70;99.90
15834;DHT22;8017;50.812;4.934;2023-03-01T06:39:12;-2.60;99.90
15834;DHT22;8017;50.812;4.934;2023-03-01T06:42:14;-2.60;99.90
15834;DHT22;8017;50.812;4.934;2023-03-01T06:45:18;-2.60;99.90
15834;DHT22;8017;50.812;4.934;2023-03-01T06:48:21;-2.60;99.90
15834;DHT22;8017;50.812;4.934;2023-03-01T06:51:23;-2.60;99.90
15834;DHT22;8017;50.812;4.934;2023-03-01T06:54:25;-2.70;99.90
15834;DHT22;8017;50.812;4.934;2023-03-01T06:57:27;-2.70;99.90
15834;DHT22;8017;50.812;4.934;2023-03-01T07:00:30;-2.60;99.90
15834;DHT22;8017;50.812;4.934;2023-03-01T07:03:34;-2.50;99.90
15834;DHT22;8017;50.812;4.934;2023-03-01T07:06:36;-2.40;99.90
15834;DHT22;8017;50.812;4.934;2023-03-01T07:09:38;-2.30;99.90
15834;DHT22;8017;50.812;4.934;2023-03-01T07:12:40;-2.20;99.90
15834;DHT22;8017;50.812;4.934;2023-03-01T07:15:42;-2.20;99.90
15834;DHT22;8017;50.812;4.934;2023-03-01T07:18:46;-2.20;99.90
15834;DHT22;8017;50.812;4.934;2023-03-01T07:21:48;-1.90;99.90
15834;DHT22;8017;50.812;4.934;2023-03-01T07:24:50;-2.00;99.90
15834;DHT22;8017;50.812;4.934;2023-03-01T07:27:52;-1.90;99.90
15834;DHT22;8017;50.812;4.934;2023-03-01T07:30:55;-2.00;99.90
15834;DHT22;8017;50.812;4.934;2023-03-01T07:33:58;-1.90;99.90
15834;DHT22;8017;50.812;4.934;2023-03-01T07:37:00;-1.90;99.90
15834;DHT22;8017;50.812;4.934;2023-03-01T07:40:02;-1.70;99.90
15834;DHT22;8017;50.812;4.934;2023-03-01T07:43:04;-1.80;99.90
15834;DHT22;8017;50.812;4.934;2023-03-01T07:46:06;-1.70;99.90
15834;DHT22;8017;50.812;4.934;2023-03-01T07:49:10;-1.60;99.90
15834;DHT22;8017;50.812;4.934;2023-03-01T07:52:12;-1.50;99.90
15834;DHT22;8017;50.812;4.934;2023-03-01T07:55:14;-1.40;99.90
15834;DHT22;8017;50.812;4.934;2023-03-01T07:58:16;-1.30;99.90
15834;DHT22;8017;50.812;4.934;2023-03-01T08:01:21;-1.30;99.90
15834;DHT22;8017;50.812;4.934;2023-03-01T08:04:25;-1.30;99.90
15834;DHT22;8017;50.812;4.934;2023-03-01T08:07:27;-1.10;99.90
15834;DHT22;8017;50.812;4.934;2023-03-01T08:10:29;-1.00;99.90
15834;DHT22;8017;50.812;4.934;2023-03-01T08:13:31;-1.00;99.90
15834;DHT22;8017;50.812;4.934;2023-03-01T08:16:34;-0.80;99.90
15834;DHT22;8017;50.812;4.934;2023-03-01T08:19:37;-0.80;99.90
15834;DHT22;8017;50.812;4.934;2023-03-01T08:22:39;-0.70;99.90
15834;DHT22;8017;50.812;4.934;2023-03-01T08:25:41;-0.70;99.90
15834;DHT22;8017;50.812;4.934;2023-03-01T08:28:43;-0.60;99.90
15834;DHT22;8017;50.812;4.934;2023-03-01T08:31:45;-0.60;99.90
15834;DHT22;8017;50.812;4.934;2023-03-01T08:34:48;-0.50;99.90
15834;DHT22;8017;50.812;4.934;2023-03-01T08:37:50;-0.40;99.90
15834;DHT22;8017;50.812;4.934;2023-03-01T08:40:52;-0.30;99.90
15834;DHT22;8017;50.812;4.934;2023-03-01T08:43:54;-0.30;99.90
15834;DHT22;8017;50.812;4.934;2023-03-01T08:46:59;-0.20;99.90
15834;DHT22;8017;50.812;4.934;2023-03-01T08:50:05;-0.10;99.90
15834;DHT22;8017;50.812;4.934;2023-03-01T08:53:07;-0.10;99.90
15834;DHT22;8017;50.812;4.934;2023-03-01T08:56:09;-0.10;99.90
15834;DHT22;8017;50.812;4.934;2023-03-01T08:59:12;0.00;99.90
15834;DHT22;8017;50.812;4.934;2023-03-01T09:02:16;0.10;99.90
15834;DHT22;8017;50.812;4.934;2023-03-01T09:05:19;0.10;99.90
15834;DHT22;8017;50.812;4.934;2023-03-01T09:08:21;0.10;99.90
15834;DHT22;8017;50.812;4.934;2023-03-01T09:11:23;0.20;99.90
15834;DHT22;8017;50.812;4.934;2023-03-01T09:14:25;0.30;99.90
15834;DHT22;8017;50.812;4.934;2023-03-01T09:17:27;0.30;99.90
15834;DHT22;8017;50.812;4.934;2023-03-01T09:20:31;0.40;99.90
15834;DHT22;8017;50.812;4.934;2023-03-01T09:23:34;0.40;99.90
15834;DHT22;8017;50.812;4.934;2023-03-01T09:26:36;0.60;99.90
15834;DHT22;8017;50.812;4.934;2023-03-01T09:29:38;0.70;99.90
15834;DHT22;8017;50.812;4.934;2023-03-01T09:32:46;0.70;99.90
15834;DHT22;8017;50.812;4.934;2023-03-01T09:35:57;0.90;99.90
15834;DHT22;8017;50.812;4.934;2023-03-01T09:38:59;1.00;99.90
15834;DHT22;8017;50.812;4.934;2023-03-01T09:42:03;1.00;99.90
15834;DHT22;8017;50.812;4.934;2023-03-01T09:45:06;1.00;99.90
15834;DHT22;8017;50.812;4.934;2023-03-01T09:48:16;1.10;99.90
15834;DHT22;8017;50.812;4.934;2023-03-01T09:51:26;1.10;99.90
15834;DHT22;8017;50.812;4.934;2023-03-01T09:54:28;1.30;99.90
15834;DHT22;8017;50.812;4.934;2023-03-01T09:57:35;1.40;99.90
15834;DHT22;8017;50.812;4.934;2023-03-01T10:00:41;1.50;99.90
15834;DHT22;8017;50.812;4.934;2023-03-01T10:03:57;1.50;99.90
15834;DHT22;8017;50.812;4.934;2023-03-01T10:07:22;1.60;99.90
15834;DHT22;8017;50.812;4.934;2023-03-01T10:10:32;1.60;99.90
15834;DHT22;8017;50.812;4.934;2023-03-01T10:13:42;1.80;99.90
15834;DHT22;8017;50.812;4.934;2023-03-01T10:16:52;1.90;99.90
15834;DHT22;8017;50.812;4.934;2023-03-01T10:20:16;2.00;99.90
15834;DHT22;8017;50.812;4.934;2023-03-01T10:23:22;2.10;99.90
15834;DHT22;8017;50.812;4.934;2023-03-01T10:26:35;2.10;99.90
15834;DHT22;8017;50.812;4.934;2023-03-01T10:29:46;2.10;99.90
15834;DHT22;8017;50.812;4.934;2023-03-01T10:32:52;2.20;99.90
15834;DHT22;8017;50.812;4.934;2023-03-01T10:35:54;2.30;99.90
15834;DHT22;8017;50.812;4.934;2023-03-01T10:38:58;2.40;99.90
15834;DHT22;8017;50.812;4.934;2023-03-01T10:42:02;2.50;99.90
15834;DHT22;8017;50.812;4.934;2023-03-01T10:45:16;2.50;99.90
15834;DHT22;8017;50.812;4.934;2023-03-01T10:48:20;2.60;99.90
15834;DHT22;8017;50.812;4.934;2023-03-01T10:51:24;2.70;99.90
15834;DHT22;8017;50.812;4.934;2023-03-01T10:54:30;2.70;99.90
15834;DHT22;8017;50.812;4.934;2023-03-01T10:57:38;2.80;99.90
15834;DHT22;8017;50.812;4.934;2023-03-01T11:00:48;2.90;99.90
15834;DHT22;8017;50.812;4.934;2023-03-01T11:04:09;3.00;99.90
15834;DHT22;8017;50.812;4.934;2023-03-01T11:07:12;3.00;99.90
15834;DHT22;8017;50.812;4.934;2023-03-01T11:10:18;3.10;99.90
15834;DHT22;8017;50.812;4.934;2023-03-01T11:13:20;3.20;99.90
15834;DHT22;8017;50.812;4.934;2023-03-01T11:16:33;3.20;99.90
15834;DHT22;8017;50.812;4.934;2023-03-01T11:19:35;3.30;99.90
15834;DHT22;8017;50.812;4.934;2023-03-01T11:22:43;3.40;99.90
15834;DHT22;8017;50.812;4.934;2023-03-01T11:25:52;3.30;99.90
15834;DHT22;8017;50.812;4.934;2023-03-01T11:29:00;3.50;99.90
15834;DHT22;8017;50.812;4.934;2023-03-01T11:32:07;3.60;99.90
15834;DHT22;8017;50.812;4.934;2023-03-01T11:35:14;3.60;99.90
15834;DHT22;8017;50.812;4.934;2023-03-01T11:38:22;3.70;99.90
15834;DHT22;8017;50.812;4.934;2023-03-01T11:41:27;3.70;99.90
15834;DHT22;8017;50.812;4.934;2023-03-01T11:44:33;3.90;99.90
15834;DHT22;8017;50.812;4.934;2023-03-01T11:47:57;3.90;99.90
15834;DHT22;8017;50.812;4.934;2023-03-01T11:51:07;3.90;99.90
15834;DHT22;8017;50.812;4.934;2023-03-01T11:54:18;4.00;99.90
15834;DHT22;8017;50.812;4.934;2023-03-01T11:57:41;4.00;99.90
15834;DHT22;8017;50.812;4.934;2023-03-01T12:01:07;4.10;99.90
15834;DHT22;8017;50.812;4.934;2023-03-01T12:04:36;4.10;99.90
15834;DHT22;8017;50.812;4.934;2023-03-01T12:07:48;4.10;99.90
15834;DHT22;8017;50.812;4.934;2023-03-01T12:10:59;4.30;99.90
15834;DHT22;8017;50.812;4.934;2023-03-01T12:14:19;4.30;99.90
15834;DHT22;8017;50.812;4.934;2023-03-01T12:17:36;4.30;99.90
15834;DHT22;8017;50.812;4.934;2023-03-01T12:20:47;4.20;99.90
15834;DHT22;8017;50.812;4.934;2023-03-01T12:24:15;4.30;99.90
15834;DHT22;8017;50.812;4.934;2023-03-01T12:27:38;4.30;99.90
15834;DHT22;8017;50.812;4.934;2023-03-01T12:30:56;4.40;99.90
15834;DHT22;8017;50.812;4.934;2023-03-01T12:34:11;4.40;99.90
15834;DHT22;8017;50.812;4.934;2023-03-01T12:37:25;4.50;99.90
15834;DHT22;8017;50.812;4.934;2023-03-01T12:40:42;4.60;99.90
15834;DHT22;8017;50.812;4.934;2023-03-01T12:43:56;4.80;99.90
15834;DHT22;8017;50.812;4.934;2023-03-01T12:47:13;4.90;99.90
15834;DHT22;8017;50.812;4.934;2023-03-01T12:50:19;4.90;99.90
15834;DHT22;8017;50.812;4.934;2023-03-01T12:53:24;5.00;99.90
15834;DHT22;8017;50.812;4.934;2023-03-01T12:56:30;5.00;99.90
15834;DHT22;8017;50.812;4.934;2023-03-01T12:59:38;5.10;99.90
15834;DHT22;8017;50.812;4.934;2023-03-01T13:02:48;5.00;99.90
15834;DHT22;8017;50.812;4.934;2023-03-01T13:06:04;5.00;99.90
15834;DHT22;8017;50.812;4.934;2023-03-01T13:09:14;5.00;99.90
15834;DHT22;8017;50.812;4.934;2023-03-01T13:13:00;5.10;99.90
15834;DHT22;8017;50.812;4.934;2023-03-01T13:16:22;5.30;99.90
15834;DHT22;8017;50.812;4.934;2023-03-01T13:19:56;5.20;99.90
15834;DHT22;8017;50.812;4.934;2023-03-01T13:23:04;5.30;99.90
15834;DHT22;8017;50.812;4.934;2023-03-01T13:26:11;5.30;99.90
15834;DHT22;8017;50.812;4.934;2023-03-01T13:29:26;5.30;99.90
15834;DHT22;8017;50.812;4.934;2023-03-01T13:32:30;5.40;99.90
15834;DHT22;8017;50.812;4.934;2023-03-01T13:35:43;5.50;99.90
15834;DHT22;8017;50.812;4.934;2023-03-01T13:38:47;5.40;99.90
15834;DHT22;8017;50.812;4.934;2023-03-01T13:41:50;5.40;99.90
15834;DHT22;8017;50.812;4.934;2023-03-01T13:44:53;5.50;99.90
15834;DHT22;8017;50.812;4.934;2023-03-01T13:47:57;5.60;99.90
15834;DHT22;8017;50.812;4.934;2023-03-01T13:51:03;5.70;99.90
15834;DHT22;8017;50.812;4.934;2023-03-01T13:54:11;5.70;99.90
15834;DHT22;8017;50.812;4.934;2023-03-01T13:57:20;5.70;99.90
15834;DHT22;8017;50.812;4.934;2023-03-01T14:00:38;5.80;99.90
15834;DHT22;8017;50.812;4.934;2023-03-01T14:03:41;5.70;99.90
15834;DHT22;8017;50.812;4.934;2023-03-01T14:06:44;5.70;99.90
15834;DHT22;8017;50.812;4.934;2023-03-01T14:09:48;5.70;99.90
15834;DHT22;8017;50.812;4.934;2023-03-01T14:12:55;5.90;99.90
15834;DHT22;8017;50.812;4.934;2023-03-01T14:16:15;5.90;99.90
15834;DHT22;8017;50.812;4.934;2023-03-01T14:19:23;5.90;99.90
15834;DHT22;8017;50.812;4.934;2023-03-01T14:22:29;5.90;99.90
15834;DHT22;8017;50.812;4.934;2023-03-01T14:25:35;5.90;99.90
15834;DHT22;8017;50.812;4.934;2023-03-01T14:28:38;5.90;99.90
15834;DHT22;8017;50.812;4.934;2023-03-01T14:31:40;6.00;99.90
15834;DHT22;8017;50.812;4.934;2023-03-01T14:34:43;6.10;99.90
15834;DHT22;8017;50.812;4.934;2023-03-01T14:37:47;6.10;99.90
15834;DHT22;8017;50.812;4.934;2023-03-01T14:40:52;6.10;99.90
15834;DHT22;8017;50.812;4.934;2023-03-01T14:44:00;6.10;99.90
15834;DHT22;8017;50.812;4.934;2023-03-01T14:47:02;6.10;99.90
15834;DHT22;8017;50.812;4.934;2023-03-01T14:50:09;6.10;99.90
15834;DHT22;8017;50.812;4.934;2023-03-01T14:53:17;6.20;99.90
15834;DHT22;8017;50.812;4.934;2023-03-01T14:56:20;6.30;99.90
15834;DHT22;8017;50.812;4.934;2023-03-01T14:59:23;6.20;99.90
15834;DHT22;8017;50.812;4.934;2023-03-01T15:02:26;6.30;99.90
15834;DHT22;8017;50.812;4.934;2023-03-01T15:05:32;6.30;99.90
15834;DHT22;8017;50.812;4.934;2023-03-01T15:08:37;6.30;99.90
15834;DHT22;8017;50.812;4.934;2023-03-01T15:11:42;6.30;99.90
15834;DHT22;8017;50.812;4.934;2023-03-01T15:14:45;6.40;99.90
15834;DHT22;8017;50.812;4.934;2023-03-01T15:17:53;6.30;99.90
15834;DHT22;8017;50.812;4.934;2023-03-01T15:21:06;6.30;99.90
15834;DHT22;8017;50.812;4.934;2023-03-01T15:24:17;6.20;99.90
15834;DHT22;8017;50.812;4.934;2023-03-01T15:27:25;6.20;99.90
15834;DHT22;8017;50.812;4.934;2023-03-01T15:30:30;6.20;99.90
15834;DHT22;8017;50.812;4.934;2023-03-01T15:33:37;6.10;99.90
15834;DHT22;8017;50.812;4.934;2023-03-01T15:36:44;6.00;99.90
15834;DHT22;8017;50.812;4.934;2023-03-01T15:39:55;6.00;99.90
15834;DHT22;8017;50.812;4.934;2023-03-01T15:42:58;6.10;99.90
15834;DHT22;8017;50.812;4.934;2023-03-01T15:46:00;6.00;99.90
15834;DHT22;8017;50.812;4.934;2023-03-01T15:49:04;6.10;99.90
15834;DHT22;8017;50.812;4.934;2023-03-01T15:52:12;6.00;99.90
15834;DHT22;8017;50.812;4.934;2023-03-01T15:55:18;5.90;99.90
15834;DHT22;8017;50.812;4.934;2023-03-01T15:58:23;5.90;99.90
15834;DHT22;8017;50.812;4.934;2023-03-01T16:01:25;5.90;99.90
15834;DHT22;8017;50.812;4.934;2023-03-01T16:04:27;6.00;99.90
15834;DHT22;8017;50.812;4.934;2023-03-01T16:07:29;5.90;99.90
15834;DHT22;8017;50.812;4.934;2023-03-01T16:10:33;5.90;99.90
15834;DHT22;8017;50.812;4.934;2023-03-01T16:13:35;5.90;99.90
15834;DHT22;8017;50.812;4.934;2023-03-01T16:16:37;5.90;99.90
15834;DHT22;8017;50.812;4.934;2023-03-01T16:19:40;5.90;99.90
15834;DHT22;8017;50.812;4.934;2023-03-01T16:22:42;5.90;99.90
15834;DHT22;8017;50.812;4.934;2023-03-01T16:25:45;5.90;99.90
15834;DHT22;8017;50.812;4.934;2023-03-01T16:28:47;5.80;99.90
15834;DHT22;8017;50.812;4.934;2023-03-01T16:31:49;5.80;99.90
15834;DHT22;8017;50.812;4.934;2023-03-01T16:34:51;5.70;99.90
15834;DHT22;8017;50.812;4.934;2023-03-01T16:37:53;5.60;99.90
15834;DHT22;8017;50.812;4.934;2023-03-01T16:40:56;5.60;99.90
15834;DHT22;8017;50.812;4.934;2023-03-01T16:43:58;5.50;99.90
15834;DHT22;8017;50.812;4.934;2023-03-01T16:47:00;5.50;99.90
15834;DHT22;8017;50.812;4.934;2023-03-01T16:50:02;5.40;99.90
15834;DHT22;8017;50.812;4.934;2023-03-01T16:53:04;5.40;99.90
15834;DHT22;8017;50.812;4.934;2023-03-01T16:56:10;5.30;99.90
15834;DHT22;8017;50.812;4.934;2023-03-01T16:59:12;5.20;99.90
15834;DHT22;8017;50.812;4.934;2023-03-01T17:02:14;5.10;99.90
15834;DHT22;8017;50.812;4.934;2023-03-01T17:05:20;5.10;99.90
15834;DHT22;8017;50.812;4.934;2023-03-01T17:08:24;5.00;99.90
15834;DHT22;8017;50.812;4.934;2023-03-01T17:11:27;4.90;99.90
15834;DHT22;8017;50.812;4.934;2023-03-01T17:14:29;4.80;99.90
15834;DHT22;8017;50.812;4.934;2023-03-01T17:17:31;4.80;99.90
15834;DHT22;8017;50.812;4.934;2023-03-01T17:20:35;4.60;99.90
15834;DHT22;8017;50.812;4.934;2023-03-01T17:23:40;4.50;99.90
15834;DHT22;8017;50.812;4.934;2023-03-01T17:26:43;4.40;99.90
15834;DHT22;8017;50.812;4.934;2023-03-01T17:29:45;4.30;99.90
15834;DHT22;8017;50.812;4.934;2023-03-01T17:32:47;4.20;99.90
15834;DHT22;8017;50.812;4.934;2023-03-01T17:35:49;4.10;99.90
15834;DHT22;8017;50.812;4.934;2023-03-01T17:38:51;4.00;99.90
15834;DHT22;8017;50.812;4.934;2023-03-01T17:41:55;4.00;99.90
15834;DHT22;8017;50.812;4.934;2023-03-01T17:44:57;3.90;99.90
15834;DHT22;8017;50.812;4.934;2023-03-01T17:48:00;3.90;99.90
15834;DHT22;8017;50.812;4.934;2023-03-01T17:51:05;3.80;99.90
15834;DHT22;8017;50.812;4.934;2023-03-01T17:54:07;3.70;99.90
15834;DHT22;8017;50.812;4.934;2023-03-01T17:57:10;3.60;99.90
15834;DHT22;8017;50.812;4.934;2023-03-01T18:00:15;3.60;99.90
15834;DHT22;8017;50.812;4.934;2023-03-01T18:03:17;3.50;99.90
15834;DHT22;8017;50.812;4.934;2023-03-01T18:06:22;3.50;99.90
15834;DHT22;8017;50.812;4.934;2023-03-01T18:09:26;3.50;99.90
15834;DHT22;8017;50.812;4.934;2023-03-01T18:12:31;3.40;99.90
15834;DHT22;8017;50.812;4.934;2023-03-01T18:15:33;3.40;99.90
15834;DHT22;8017;50.812;4.934;2023-03-01T18:18:35;3.30;99.90
15834;DHT22;8017;50.812;4.934;2023-03-01T18:21:37;3.20;99.90
15834;DHT22;8017;50.812;4.934;2023-03-01T18:24:40;3.10;99.90
15834;DHT22;8017;50.812;4.934;2023-03-01T18:27:43;3.00;99.90
15834;DHT22;8017;50.812;4.934;2023-03-01T18:30:45;2.90;99.90
15834;DHT22;8017;50.812;4.934;2023-03-01T18:33:48;2.80;99.90
15834;DHT22;8017;50.812;4.934;2023-03-01T18:36:50;2.80;99.90
15834;DHT22;8017;50.812;4.934;2023-03-01T18:39:53;2.80;99.90
15834;DHT22;8017;50.812;4.934;2023-03-01T18:42:56;2.80;99.90
15834;DHT22;8017;50.812;4.934;2023-03-01T18:45:59;2.70;99.90
15834;DHT22;8017;50.812;4.934;2023-03-01T18:49:01;2.70;99.90
15834;DHT22;8017;50.812;4.934;2023-03-01T18:52:03;2.60;99.90
15834;DHT22;8017;50.812;4.934;2023-03-01T18:55:05;2.60;99.90
15834;DHT22;8017;50.812;4.934;2023-03-01T18:58:09;2.60;99.90
15834;DHT22;8017;50.812;4.934;2023-03-01T19:01:13;2.50;99.90
15834;DHT22;8017;50.812;4.934;2023-03-01T19:04:15;2.40;99.90
15834;DHT22;8017;50.812;4.934;2023-03-01T19:07:17;2.40;99.90
15834;DHT22;8017;50.812;4.934;2023-03-01T19:10:20;2.30;99.90
15834;DHT22;8017;50.812;4.934;2023-03-01T19:13:23;2.30;99.90
15834;DHT22;8017;50.812;4.934;2023-03-01T19:16:28;2.30;99.90
15834;DHT22;8017;50.812;4.934;2023-03-01T19:19:30;2.30;99.90
15834;DHT22;8017;50.812;4.934;2023-03-01T19:22:32;2.40;99.90
15834;DHT22;8017;50.812;4.934;2023-03-01T19:25:34;2.40;99.90
15834;DHT22;8017;50.812;4.934;2023-03-01T19:28:37;2.30;99.90
15834;DHT22;8017;50.812;4.934;2023-03-01T19:31:39;2.30;99.90
15834;DHT22;8017;50.812;4.934;2023-03-01T19:34:41;2.30;99.90
15834;DHT22;8017;50.812;4.934;2023-03-01T19:37:43;2.30;99.90
15834;DHT22;8017;50.812;4.934;2023-03-01T19:40:45;2.30;99.90
15834;DHT22;8017;50.812;4.934;2023-03-01T19:43:48;2.30;99.90
15834;DHT22;8017;50.812;4.934;2023-03-01T19:46:51;2.40;99.90
15834;DHT22;8017;50.812;4.934;2023-03-01T19:49:53;2.30;99.90
15834;DHT22;8017;50.812;4.934;2023-03-01T19:52:55;2.30;99.90
15834;DHT22;8017;50.812;4.934;2023-03-01T19:55:57;2.30;99.90
15834;DHT22;8017;50.812;4.934;2023-03-01T19:59:01;2.10;99.90